Flight Track Log - Related Links

Times and Time Zones

All times are in EDT time to prevent confusion due to time zone crossing. See the SKW6330 flight status page for this flight to view local times or setup timezone preferences in your user account.

Time Position Orientation Groundspeed Altitude Reporting Facility
EDT Latitude Longitude Course Direction KTS MPH feet Rate Location/Type
Thu 07:30:00 PM 34.2116 -118.5475 338° Northwest  Level FlightAware Approximate
Thu 07:31:00 PM 34.2830 -118.5832 338° Northwest  Level FlightAware Approximate
Thu 07:32:00 PM 34.3559 -118.6217 335° Northwest  Level FlightAware Approximate
Thu 07:33:00 PM 34.4281 -118.6619 335° Northwest  Level FlightAware Approximate
Thu 07:34:00 PM 34.5025 -118.6953 345° North  Level FlightAware Approximate
Thu 07:35:00 PM 34.5760 -118.7315 335° Northwest  Level FlightAware Approximate
Thu 07:36:00 PM 34.6480 -118.7726 335° Northwest  Level FlightAware Approximate
Thu 07:37:00 PM 34.7211 -118.8105 338° Northwest  Level FlightAware Approximate
Thu 07:38:00 PM 34.7947 -118.8473 338° Northwest  Level FlightAware Approximate
Thu 07:39:00 PM 34.8703 -118.8759 348° North  Level FlightAware Approximate
Thu 07:40:00 PM 34.9431 -118.9121 331° Northwest  Level FlightAware Approximate
Thu 07:41:00 PM 35.0202 -118.9343 347° North  Level FlightAware Approximate
Thu 07:42:00 PM 35.0978 -118.9554 347° North  Level FlightAware Approximate
Thu 07:43:00 PM 35.1754 -118.9766 347° North  Level FlightAware Approximate
Thu 07:44:00 PM 35.2523 -119.0017 344° North  Level FlightAware Approximate
Thu 07:45:00 PM 35.3287 -119.0287 344° North  Level FlightAware Approximate
Thu 07:46:00 PM 35.4051 -119.0556 344° North  Level FlightAware Approximate
Thu 07:47:00 PM 35.4815 -119.0827 344° North  Level FlightAware Approximate
Thu 07:48:00 PM 35.5602 -119.0737 10° North  Level FlightAware Approximate
Thu 07:49:00 PM 35.6385 -119.0563 10° North  Level FlightAware Approximate
Thu 07:50:00 PM 35.7172 -119.0428 North  Level FlightAware Approximate
Thu 07:51:00 PM 35.7962 -119.0315 North  Level FlightAware Approximate
Thu 07:52:00 PM 35.8752 -119.0202 North  Level FlightAware Approximate
Thu 07:53:00 PM 35.9518 -119.0342 338° Northwest  Level FlightAware Approximate
Thu 07:54:00 PM 36.0256 -119.0705 341° North  Level FlightAware Approximate
Thu 07:55:00 PM 36.1008 -119.1027 341° North  Level FlightAware Approximate
Thu 07:56:00 PM 36.1750 -119.1379 336° Northwest  Level FlightAware Approximate
Thu 07:57:00 PM 36.2476 -119.1782 336° Northwest  Level FlightAware Approximate
Thu 07:58:00 PM 36.3204 -119.2167 North  Level FlightAware Approximate
Thu 07:59:00 PM 36.3952 -119.2475 338° Northwest  Level FlightAware Approximate
Thu 08:00:00 PM 36.4689 -119.2844 338° Northwest  Level FlightAware Approximate
Thu 08:01:00 PM 36.5434 -119.3167 North  Level FlightAware Approximate
Thu 08:02:00 PM 36.5915 -119.3913 305° West  Level FlightAware Approximate
Thu 08:03:00 PM 36.6365 -119.4730 302° West  Level FlightAware Approximate
Thu 08:04:00 PM 36.6843 -119.5520 302° West  Level FlightAware Approximate
Thu 08:05:00 PM 36.7319 -119.6312 310° West  Level FlightAware Approximate
Thu 08:06:00 PM 36.7667 -119.7167 297° West  Level FlightAware Approximate
Thu 08:07:00 PM 36.7764 -119.7187 297° West  Level Estimated
Thu 08:08:00 PM 36.7764 -119.7187 297° West  Level Estimated
Thu 08:09:00 PM 36.7764 -119.7187 297° West  Level Estimated
Thu 08:10:00 PM 36.7764 -119.7187 297° West  Level Estimated
Thu 08:11:00 PM 36.7764 -119.7187 297° West  Level Estimated
Thu 08:12:00 PM 36.7764 -119.7187 297° West  Level Estimated
Thu 08:13:00 PM 36.7764 -119.7187 297° West  Level Estimated
Thu 08:14:00 PM 36.7764 -119.7187 297° West  Level Estimated
Thu 08:15:00 PM 36.7764 -119.7187 297° West  Level Estimated
Thu 08:16:00 PM 36.7764 -119.7187 297° West  Level Estimated
Thu 08:17:00 PM 36.7764 -119.7187 297° West  Level Estimated
Thu 08:18:00 PM 36.7764 -119.7187 297° West  Level Estimated
Thu 08:19:00 PM 36.7764 -119.7187 297° West  Level Estimated
Thu 08:20:00 PM 36.7764 -119.7187 297° West  Level Estimated

Login

Don't have an account? Register now (free) for customized features, flight alerts, and more!